sensor_id;sensor_type;location;lat;lon;timestamp;temperature;humidity
21918;DHT22;11123;49.882;8.662;2022-08-01T00:01:30;24.40;1.00
21918;DHT22;11123;49.882;8.662;2022-08-01T00:03:58;24.30;1.00
21918;DHT22;11123;49.882;8.662;2022-08-01T00:06:27;24.40;1.00
21918;DHT22;11123;49.882;8.662;2022-08-01T00:08:56;24.30;1.00
21918;DHT22;11123;49.882;8.662;2022-08-01T00:11:24;24.30;1.00
21918;DHT22;11123;49.882;8.662;2022-08-01T00:13:53;24.20;1.00
21918;DHT22;11123;49.882;8.662;2022-08-01T00:16:22;24.10;1.00
21918;DHT22;11123;49.882;8.662;2022-08-01T00:18:50;24.10;1.00
21918;DHT22;11123;49.882;8.662;2022-08-01T00:21:19;24.10;1.00
21918;DHT22;11123;49.882;8.662;2022-08-01T00:23:47;23.90;1.00
21918;DHT22;11123;49.882;8.662;2022-08-01T00:26:15;23.90;1.00
21918;DHT22;11123;49.882;8.662;2022-08-01T00:28:44;23.80;1.00
21918;DHT22;11123;49.882;8.662;2022-08-01T00:31:13;23.80;1.00
21918;DHT22;11123;49.882;8.662;2022-08-01T00:33:41;23.80;1.00
21918;DHT22;11123;49.882;8.662;2022-08-01T00:36:10;23.80;1.00
21918;DHT22;11123;49.882;8.662;2022-08-01T00:38:38;23.80;1.00
21918;DHT22;11123;49.882;8.662;2022-08-01T00:41:06;23.80;1.00
21918;DHT22;11123;49.882;8.662;2022-08-01T00:43:34;23.70;1.00
21918;DHT22;11123;49.882;8.662;2022-08-01T00:46:02;23.70;1.00
21918;DHT22;11123;49.882;8.662;2022-08-01T00:48:32;23.70;1.00
21918;DHT22;11123;49.882;8.662;2022-08-01T00:51:01;23.60;1.00
21918;DHT22;11123;49.882;8.662;2022-08-01T00:53:29;23.60;1.00
21918;DHT22;11123;49.882;8.662;2022-08-01T00:56:18;23.60;1.00
21918;DHT22;11123;49.882;8.662;2022-08-01T00:58:47;23.60;1.00
21918;DHT22;11123;49.882;8.662;2022-08-01T01:01:16;23.50;1.00
21918;DHT22;11123;49.882;8.662;2022-08-01T01:03:46;23.50;1.00
21918;DHT22;11123;49.882;8.662;2022-08-01T01:06:43;23.50;1.00
21918;DHT22;11123;49.882;8.662;2022-08-01T01:09:28;23.50;1.00
21918;DHT22;11123;49.882;8.662;2022-08-01T01:12:06;23.50;1.00
21918;DHT22;11123;49.882;8.662;2022-08-01T01:14:41;23.40;1.00
21918;DHT22;11123;49.882;8.662;2022-08-01T01:17:16;23.50;1.00
21918;DHT22;11123;49.882;8.662;2022-08-01T01:20:08;23.40;1.00
21918;DHT22;11123;49.882;8.662;2022-08-01T01:22:50;23.40;1.00
21918;DHT22;11123;49.882;8.662;2022-08-01T01:25:32;23.30;1.00
21918;DHT22;11123;49.882;8.662;2022-08-01T01:28:10;23.30;1.00
21918;DHT22;11123;49.882;8.662;2022-08-01T01:30:44;23.30;1.00
21918;DHT22;11123;49.882;8.662;2022-08-01T01:33:14;23.30;1.00
21918;DHT22;11123;49.882;8.662;2022-08-01T01:35:48;23.20;1.00
21918;DHT22;11123;49.882;8.662;2022-08-01T01:38:21;23.20;1.00
21918;DHT22;11123;49.882;8.662;2022-08-01T01:40:51;23.20;1.00
21918;DHT22;11123;49.882;8.662;2022-08-01T01:43:21;23.20;1.00
21918;DHT22;11123;49.882;8.662;2022-08-01T01:46:02;23.10;1.00
21918;DHT22;11123;49.882;8.662;2022-08-01T01:48:35;23.00;1.00
21918;DHT22;11123;49.882;8.662;2022-08-01T01:51:04;23.00;1.00
21918;DHT22;11123;49.882;8.662;2022-08-01T01:53:34;23.00;1.00
21918;DHT22;11123;49.882;8.662;2022-08-01T01:56:03;22.90;1.00
21918;DHT22;11123;49.882;8.662;2022-08-01T01:58:33;22.80;1.00
21918;DHT22;11123;49.882;8.662;2022-08-01T02:01:03;22.80;1.00
21918;DHT22;11123;49.882;8.662;2022-08-01T02:03:41;22.70;1.00
21918;DHT22;11123;49.882;8.662;2022-08-01T02:06:13;22.60;1.00
21918;DHT22;11123;49.882;8.662;2022-08-01T02:08:43;22.60;1.00
21918;DHT22;11123;49.882;8.662;2022-08-01T02:11:11;22.60;1.00
21918;DHT22;11123;49.882;8.662;2022-08-01T02:13:53;22.60;1.00
21918;DHT22;11123;49.882;8.662;2022-08-01T02:16:26;22.70;1.00
21918;DHT22;11123;49.882;8.662;2022-08-01T02:18:55;22.60;1.00
21918;DHT22;11123;49.882;8.662;2022-08-01T02:21:28;22.60;1.00
21918;DHT22;11123;49.882;8.662;2022-08-01T02:24:01;22.60;1.00
21918;DHT22;11123;49.882;8.662;2022-08-01T02:26:32;22.50;1.00
21918;DHT22;11123;49.882;8.662;2022-08-01T02:29:05;22.40;1.00
21918;DHT22;11123;49.882;8.662;2022-08-01T02:31:39;22.40;3.00
21918;DHT22;11123;49.882;8.662;2022-08-01T02:34:14;22.40;4.20
21918;DHT22;11123;49.882;8.662;2022-08-01T02:36:46;22.30;5.10
21918;DHT22;11123;49.882;8.662;2022-08-01T02:39:16;22.30;6.70
21918;DHT22;11123;49.882;8.662;2022-08-01T02:41:48;22.20;8.60
21918;DHT22;11123;49.882;8.662;2022-08-01T02:44:23;22.20;9.40
21918;DHT22;11123;49.882;8.662;2022-08-01T02:46:56;22.20;12.10
21918;DHT22;11123;49.882;8.662;2022-08-01T02:49:31;22.10;13.00
21918;DHT22;11123;49.882;8.662;2022-08-01T02:52:04;22.10;14.70
21918;DHT22;11123;49.882;8.662;2022-08-01T02:54:53;22.10;15.80
21918;DHT22;11123;49.882;8.662;2022-08-01T02:57:24;22.10;16.10
21918;DHT22;11123;49.882;8.662;2022-08-01T03:00:13;22.10;16.80
21918;DHT22;11123;49.882;8.662;2022-08-01T03:02:43;22.00;17.60
21918;DHT22;11123;49.882;8.662;2022-08-01T03:05:12;22.00;18.20
21918;DHT22;11123;49.882;8.662;2022-08-01T03:07:41;21.90;20.80
21918;DHT22;11123;49.882;8.662;2022-08-01T03:10:10;21.90;21.50
21918;DHT22;11123;49.882;8.662;2022-08-01T03:12:39;21.90;21.70
21918;DHT22;11123;49.882;8.662;2022-08-01T03:15:09;22.00;17.80
21918;DHT22;11123;49.882;8.662;2022-08-01T03:17:40;22.10;14.40
21918;DHT22;11123;49.882;8.662;2022-08-01T03:20:15;22.10;16.90
21918;DHT22;11123;49.882;8.662;2022-08-01T03:22:45;22.00;17.90
21918;DHT22;11123;49.882;8.662;2022-08-01T03:25:16;22.00;20.00
21918;DHT22;11123;49.882;8.662;2022-08-01T03:27:50;21.90;21.00
21918;DHT22;11123;49.882;8.662;2022-08-01T03:30:20;21.90;21.60
21918;DHT22;11123;49.882;8.662;2022-08-01T03:32:49;21.90;21.80
21918;DHT22;11123;49.882;8.662;2022-08-01T03:35:19;22.00;19.40
21918;DHT22;11123;49.882;8.662;2022-08-01T03:37:50;22.00;20.00
21918;DHT22;11123;49.882;8.662;2022-08-01T03:40:41;21.90;22.20
21918;DHT22;11123;49.882;8.662;2022-08-01T03:43:16;21.80;24.80
21918;DHT22;11123;49.882;8.662;2022-08-01T03:45:50;21.70;25.90
21918;DHT22;11123;49.882;8.662;2022-08-01T03:48:22;21.70;27.90
21918;DHT22;11123;49.882;8.662;2022-08-01T03:50:54;21.70;28.40
21918;DHT22;11123;49.882;8.662;2022-08-01T03:53:25;21.70;28.60
21918;DHT22;11123;49.882;8.662;2022-08-01T03:55:56;21.70;30.50
21918;DHT22;11123;49.882;8.662;2022-08-01T03:58:27;21.70;29.90
21918;DHT22;11123;49.882;8.662;2022-08-01T04:00:56;21.70;29.40
21918;DHT22;11123;49.882;8.662;2022-08-01T04:03:25;21.60;30.90
21918;DHT22;11123;49.882;8.662;2022-08-01T04:05:55;21.60;34.20
21918;DHT22;11123;49.882;8.662;2022-08-01T04:08:34;21.50;35.00
21918;DHT22;11123;49.882;8.662;2022-08-01T04:11:02;21.40;38.90
21918;DHT22;11123;49.882;8.662;2022-08-01T04:13:31;21.40;41.70
21918;DHT22;11123;49.882;8.662;2022-08-01T04:16:03;21.40;41.50
21918;DHT22;11123;49.882;8.662;2022-08-01T04:18:32;21.40;41.90
21918;DHT22;11123;49.882;8.662;2022-08-01T04:21:01;21.40;43.60
21918;DHT22;11123;49.882;8.662;2022-08-01T04:23:30;21.40;43.80
21918;DHT22;11123;49.882;8.662;2022-08-01T04:26:00;21.40;44.00
21918;DHT22;11123;49.882;8.662;2022-08-01T04:28:34;21.50;42.50
21918;DHT22;11123;49.882;8.662;2022-08-01T04:31:07;21.50;38.20
21918;DHT22;11123;49.882;8.662;2022-08-01T04:33:38;21.60;38.90
21918;DHT22;11123;49.882;8.662;2022-08-01T04:36:10;21.50;37.40
21918;DHT22;11123;49.882;8.662;2022-08-01T04:38:42;21.60;36.40
21918;DHT22;11123;49.882;8.662;2022-08-01T04:41:13;21.60;33.80
21918;DHT22;11123;49.882;8.662;2022-08-01T04:43:42;21.60;34.40
21918;DHT22;11123;49.882;8.662;2022-08-01T04:46:11;21.60;33.20
21918;DHT22;11123;49.882;8.662;2022-08-01T04:48:41;21.60;35.50
21918;DHT22;11123;49.882;8.662;2022-08-01T04:51:15;21.60;35.10
21918;DHT22;11123;49.882;8.662;2022-08-01T04:53:44;21.60;34.70
21918;DHT22;11123;49.882;8.662;2022-08-01T04:56:13;21.60;34.90
21918;DHT22;11123;49.882;8.662;2022-08-01T04:58:43;21.70;33.50
21918;DHT22;11123;49.882;8.662;2022-08-01T05:01:12;21.60;35.40
21918;DHT22;11123;49.882;8.662;2022-08-01T05:03:41;21.40;40.20
21918;DHT22;11123;49.882;8.662;2022-08-01T05:06:09;21.40;41.30
21918;DHT22;11123;49.882;8.662;2022-08-01T05:08:39;21.40;43.50
21918;DHT22;11123;49.882;8.662;2022-08-01T05:11:08;21.40;43.90
21918;DHT22;11123;49.882;8.662;2022-08-01T05:13:38;21.30;47.80
21918;DHT22;11123;49.882;8.662;2022-08-01T05:16:07;21.40;45.00
21918;DHT22;11123;49.882;8.662;2022-08-01T05:18:35;21.50;42.00
21918;DHT22;11123;49.882;8.662;2022-08-01T05:21:04;21.60;35.40
21918;DHT22;11123;49.882;8.662;2022-08-01T05:23:33;21.70;34.40
21918;DHT22;11123;49.882;8.662;2022-08-01T05:26:11;21.70;35.30
21918;DHT22;11123;49.882;8.662;2022-08-01T05:28:41;21.70;28.30
21918;DHT22;11123;49.882;8.662;2022-08-01T05:31:09;21.80;30.20
21918;DHT22;11123;49.882;8.662;2022-08-01T05:33:38;21.60;37.00
21918;DHT22;11123;49.882;8.662;2022-08-01T05:36:06;21.40;42.00
21918;DHT22;11123;49.882;8.662;2022-08-01T05:38:34;21.40;43.50
21918;DHT22;11123;49.882;8.662;2022-08-01T05:41:02;21.40;44.90
21918;DHT22;11123;49.882;8.662;2022-08-01T05:43:32;21.40;46.80
21918;DHT22;11123;49.882;8.662;2022-08-01T05:46:00;21.40;45.60
21918;DHT22;11123;49.882;8.662;2022-08-01T05:48:28;21.40;45.80
21918;DHT22;11123;49.882;8.662;2022-08-01T05:50:57;21.30;48.20
21918;DHT22;11123;49.882;8.662;2022-08-01T05:53:25;21.20;56.20
21918;DHT22;11123;49.882;8.662;2022-08-01T05:55:54;21.20;57.40
21918;DHT22;11123;49.882;8.662;2022-08-01T05:58:22;21.20;56.30
21918;DHT22;11123;49.882;8.662;2022-08-01T06:00:52;21.10;59.30
21918;DHT22;11123;49.882;8.662;2022-08-01T06:03:20;21.10;64.10
21918;DHT22;11123;49.882;8.662;2022-08-01T06:05:48;21.10;63.00
21918;DHT22;11123;49.882;8.662;2022-08-01T06:08:16;21.30;57.70
21918;DHT22;11123;49.882;8.662;2022-08-01T06:10:45;21.40;55.10
21918;DHT22;11123;49.882;8.662;2022-08-01T06:13:13;21.50;51.50
21918;DHT22;11123;49.882;8.662;2022-08-01T06:15:41;21.40;52.00
21918;DHT22;11123;49.882;8.662;2022-08-01T06:18:11;21.30;54.00
21918;DHT22;11123;49.882;8.662;2022-08-01T06:20:39;21.30;57.40
21918;DHT22;11123;49.882;8.662;2022-08-01T06:23:08;21.30;57.00
21918;DHT22;11123;49.882;8.662;2022-08-01T06:25:56;21.30;56.50
21918;DHT22;11123;49.882;8.662;2022-08-01T06:28:24;21.50;54.00
21918;DHT22;11123;49.882;8.662;2022-08-01T06:30:53;21.60;49.10
21918;DHT22;11123;49.882;8.662;2022-08-01T06:33:22;21.60;49.80
21918;DHT22;11123;49.882;8.662;2022-08-01T06:35:50;21.60;50.70
21918;DHT22;11123;49.882;8.662;2022-08-01T06:38:19;21.60;51.20
21918;DHT22;11123;49.882;8.662;2022-08-01T06:40:47;21.50;52.70
21918;DHT22;11123;49.882;8.662;2022-08-01T06:43:15;21.50;54.70
21918;DHT22;11123;49.882;8.662;2022-08-01T06:45:45;21.50;56.10
21918;DHT22;11123;49.882;8.662;2022-08-01T06:48:13;21.60;54.10
21918;DHT22;11123;49.882;8.662;2022-08-01T06:50:43;21.60;54.70
21918;DHT22;11123;49.882;8.662;2022-08-01T06:53:11;21.70;51.20
21918;DHT22;11123;49.882;8.662;2022-08-01T06:55:39;21.90;46.10
21918;DHT22;11123;49.882;8.662;2022-08-01T06:58:07;22.00;40.90
21918;DHT22;11123;49.882;8.662;2022-08-01T07:00:36;22.10;38.90
21918;DHT22;11123;49.882;8.662;2022-08-01T07:03:04;22.20;36.30
21918;DHT22;11123;49.882;8.662;2022-08-01T07:05:32;22.20;33.80
21918;DHT22;11123;49.882;8.662;2022-08-01T07:08:02;22.20;34.30
21918;DHT22;11123;49.882;8.662;2022-08-01T07:10:30;22.30;30.20
21918;DHT22;11123;49.882;8.662;2022-08-01T07:12:58;22.40;28.80
21918;DHT22;11123;49.882;8.662;2022-08-01T07:15:27;22.30;30.10
21918;DHT22;11123;49.882;8.662;2022-08-01T07:17:55;22.50;28.80
21918;DHT22;11123;49.882;8.662;2022-08-01T07:20:24;22.60;22.20
21918;DHT22;11123;49.882;8.662;2022-08-01T07:22:52;22.70;18.30
21918;DHT22;11123;49.882;8.662;2022-08-01T07:25:23;22.70;18.70
21918;DHT22;11123;49.882;8.662;2022-08-01T07:27:52;22.80;14.90
21918;DHT22;11123;49.882;8.662;2022-08-01T07:30:20;22.50;23.70
21918;DHT22;11123;49.882;8.662;2022-08-01T07:32:48;22.40;27.40
21918;DHT22;11123;49.882;8.662;2022-08-01T07:35:17;22.30;29.30
21918;DHT22;11123;49.882;8.662;2022-08-01T07:37:45;22.10;32.10
21918;DHT22;11123;49.882;8.662;2022-08-01T07:40:16;21.90;38.80
21918;DHT22;11123;49.882;8.662;2022-08-01T07:42:46;22.10;39.50
21918;DHT22;11123;49.882;8.662;2022-08-01T07:45:14;22.30;32.40
21918;DHT22;11123;49.882;8.662;2022-08-01T07:47:43;22.50;27.70
21918;DHT22;11123;49.882;8.662;2022-08-01T07:50:12;22.50;23.60
21918;DHT22;11123;49.882;8.662;2022-08-01T07:52:40;22.40;23.30
21918;DHT22;11123;49.882;8.662;2022-08-01T07:55:09;22.40;25.10
21918;DHT22;11123;49.882;8.662;2022-08-01T07:57:42;22.70;19.20
21918;DHT22;11123;49.882;8.662;2022-08-01T08:00:13;22.80;15.40
21918;DHT22;11123;49.882;8.662;2022-08-01T08:02:41;23.00;7.50
21918;DHT22;11123;49.882;8.662;2022-08-01T08:05:09;23.30;4.10
21918;DHT22;11123;49.882;8.662;2022-08-01T08:07:38;23.40;1.00
21918;DHT22;11123;49.882;8.662;2022-08-01T08:10:07;23.60;1.00
21918;DHT22;11123;49.882;8.662;2022-08-01T08:12:35;23.50;1.00
21918;DHT22;11123;49.882;8.662;2022-08-01T08:15:04;23.60;1.00
21918;DHT22;11123;49.882;8.662;2022-08-01T08:17:34;23.70;1.00
21918;DHT22;11123;49.882;8.662;2022-08-01T08:20:04;23.80;1.00
21918;DHT22;11123;49.882;8.662;2022-08-01T08:22:36;23.80;1.00
21918;DHT22;11123;49.882;8.662;2022-08-01T08:25:05;23.90;1.00
21918;DHT22;11123;49.882;8.662;2022-08-01T08:27:34;24.00;1.00
21918;DHT22;11123;49.882;8.662;2022-08-01T08:30:05;23.90;1.00
21918;DHT22;11123;49.882;8.662;2022-08-01T08:32:36;23.70;1.00
21918;DHT22;11123;49.882;8.662;2022-08-01T08:35:05;23.50;1.00
21918;DHT22;11123;49.882;8.662;2022-08-01T08:37:38;23.50;1.00
21918;DHT22;11123;49.882;8.662;2022-08-01T08:40:14;23.70;1.00
21918;DHT22;11123;49.882;8.662;2022-08-01T08:42:44;23.80;1.00
21918;DHT22;11123;49.882;8.662;2022-08-01T08:45:13;23.80;1.00
21918;DHT22;11123;49.882;8.662;2022-08-01T08:47:43;23.80;1.00
21918;DHT22;11123;49.882;8.662;2022-08-01T08:50:14;23.70;1.00
21918;DHT22;11123;49.882;8.662;2022-08-01T08:52:43;23.70;1.00
21918;DHT22;11123;49.882;8.662;2022-08-01T08:55:13;23.80;1.00
21918;DHT22;11123;49.882;8.662;2022-08-01T08:57:45;23.80;1.00
21918;DHT22;11123;49.882;8.662;2022-08-01T09:00:15;23.80;1.00
21918;DHT22;11123;49.882;8.662;2022-08-01T09:02:45;23.80;1.00
21918;DHT22;11123;49.882;8.662;2022-08-01T09:05:16;23.90;1.00
21918;DHT22;11123;49.882;8.662;2022-08-01T09:07:46;23.80;1.00
21918;DHT22;11123;49.882;8.662;2022-08-01T09:10:14;23.80;1.00
21918;DHT22;11123;49.882;8.662;2022-08-01T09:13:07;23.60;1.00
21918;DHT22;11123;49.882;8.662;2022-08-01T09:15:39;23.60;1.00
21918;DHT22;11123;49.882;8.662;2022-08-01T09:18:09;23.70;1.00
21918;DHT22;11123;49.882;8.662;2022-08-01T09:21:07;23.90;1.00
21918;DHT22;11123;49.882;8.662;2022-08-01T09:23:37;23.90;1.00
21918;DHT22;11123;49.882;8.662;2022-08-01T09:26:28;24.00;1.00
21918;DHT22;11123;49.882;8.662;2022-08-01T09:28:58;24.10;1.00
21918;DHT22;11123;49.882;8.662;2022-08-01T09:31:27;23.90;1.00
21918;DHT22;11123;49.882;8.662;2022-08-01T09:34:05;24.00;1.00
21918;DHT22;11123;49.882;8.662;2022-08-01T09:36:47;24.10;1.00
21918;DHT22;11123;49.882;8.662;2022-08-01T09:39:22;24.40;1.00
21918;DHT22;11123;49.882;8.662;2022-08-01T09:41:51;24.60;1.00
21918;DHT22;11123;49.882;8.662;2022-08-01T09:44:37;24.70;1.00
21918;DHT22;11123;49.882;8.662;2022-08-01T09:47:12;24.90;1.00
21918;DHT22;11123;49.882;8.662;2022-08-01T09:49:43;25.00;1.00
21918;DHT22;11123;49.882;8.662;2022-08-01T09:52:20;25.10;1.00
21918;DHT22;11123;49.882;8.662;2022-08-01T09:54:56;25.30;1.00
21918;DHT22;11123;49.882;8.662;2022-08-01T09:57:25;25.30;1.00
21918;DHT22;11123;49.882;8.662;2022-08-01T09:59:55;24.80;1.00
21918;DHT22;11123;49.882;8.662;2022-08-01T10:02:30;24.90;1.00
21918;DHT22;11123;49.882;8.662;2022-08-01T10:05:02;24.90;1.00
21918;DHT22;11123;49.882;8.662;2022-08-01T10:07:35;25.00;1.00
21918;DHT22;11123;49.882;8.662;2022-08-01T10:10:11;25.10;1.00
21918;DHT22;11123;49.882;8.662;2022-08-01T10:12:41;25.20;1.00
21918;DHT22;11123;49.882;8.662;2022-08-01T10:15:14;25.30;1.00
21918;DHT22;11123;49.882;8.662;2022-08-01T10:17:53;25.40;1.00
21918;DHT22;11123;49.882;8.662;2022-08-01T10:20:26;25.20;1.00
21918;DHT22;11123;49.882;8.662;2022-08-01T10:23:00;25.00;1.00
21918;DHT22;11123;49.882;8.662;2022-08-01T10:25:37;24.70;1.00
21918;DHT22;11123;49.882;8.662;2022-08-01T10:28:15;24.70;1.00
21918;DHT22;11123;49.882;8.662;2022-08-01T10:30:50;25.10;1.00
21918;DHT22;11123;49.882;8.662;2022-08-01T10:33:22;25.20;1.00
21918;DHT22;11123;49.882;8.662;2022-08-01T10:36:12;25.10;1.00
21918;DHT22;11123;49.882;8.662;2022-08-01T10:38:42;25.10;1.00
21918;DHT22;11123;49.882;8.662;2022-08-01T10:41:12;25.10;1.00
21918;DHT22;11123;49.882;8.662;2022-08-01T10:43:42;25.10;1.00
21918;DHT22;11123;49.882;8.662;2022-08-01T10:46:13;25.40;1.00
21918;DHT22;11123;49.882;8.662;2022-08-01T10:48:49;25.40;1.00
21918;DHT22;11123;49.882;8.662;2022-08-01T10:51:20;25.70;1.00
21918;DHT22;11123;49.882;8.662;2022-08-01T10:54:10;26.00;1.00
21918;DHT22;11123;49.882;8.662;2022-08-01T10:56:40;26.10;1.00
21918;DHT22;11123;49.882;8.662;2022-08-01T10:59:15;26.00;1.00
21918;DHT22;11123;49.882;8.662;2022-08-01T11:02:07;26.10;1.00
21918;DHT22;11123;49.882;8.662;2022-08-01T11:04:48;26.20;1.00
21918;DHT22;11123;49.882;8.662;2022-08-01T11:07:23;26.00;1.00
21918;DHT22;11123;49.882;8.662;2022-08-01T11:10:04;26.10;1.00
21918;DHT22;11123;49.882;8.662;2022-08-01T11:12:41;26.40;1.00
21918;DHT22;11123;49.882;8.662;2022-08-01T11:15:22;26.40;1.00
21918;DHT22;11123;49.882;8.662;2022-08-01T11:17:58;26.40;1.00
21918;DHT22;11123;49.882;8.662;2022-08-01T11:20:28;26.60;1.00
21918;DHT22;11123;49.882;8.662;2022-08-01T11:23:27;26.40;1.00
21918;DHT22;11123;49.882;8.662;2022-08-01T11:26:20;26.90;1.00
21918;DHT22;11123;49.882;8.662;2022-08-01T11:29:18;27.10;1.00
21918;DHT22;11123;49.882;8.662;2022-08-01T11:31:49;27.40;1.00
21918;DHT22;11123;49.882;8.662;2022-08-01T11:34:19;27.90;1.00
21918;DHT22;11123;49.882;8.662;2022-08-01T11:36:47;27.90;1.00
21918;DHT22;11123;49.882;8.662;2022-08-01T11:39:26;28.60;1.00
21918;DHT22;11123;49.882;8.662;2022-08-01T11:44:50;28.70;1.00
21918;DHT22;11123;49.882;8.662;2022-08-01T11:47:46;28.40;1.00
21918;DHT22;11123;49.882;8.662;2022-08-01T11:50:35;27.80;1.00
21918;DHT22;11123;49.882;8.662;2022-08-01T11:53:06;27.70;1.00
21918;DHT22;11123;49.882;8.662;2022-08-01T11:55:44;28.00;1.00
21918;DHT22;11123;49.882;8.662;2022-08-01T11:58:21;27.80;1.00
21918;DHT22;11123;49.882;8.662;2022-08-01T12:00:58;27.50;1.00
21918;DHT22;11123;49.882;8.662;2022-08-01T12:03:28;28.40;1.00
21918;DHT22;11123;49.882;8.662;2022-08-01T12:06:00;29.20;1.00
21918;DHT22;11123;49.882;8.662;2022-08-01T12:08:30;29.20;1.00
21918;DHT22;11123;49.882;8.662;2022-08-01T12:11:02;28.20;1.00
21918;DHT22;11123;49.882;8.662;2022-08-01T12:13:39;28.40;1.00
21918;DHT22;11123;49.882;8.662;2022-08-01T12:16:10;28.60;1.00
21918;DHT22;11123;49.882;8.662;2022-08-01T12:18:39;28.80;1.00
21918;DHT22;11123;49.882;8.662;2022-08-01T12:21:08;29.10;1.00
21918;DHT22;11123;49.882;8.662;2022-08-01T12:23:36;28.80;1.00
21918;DHT22;11123;49.882;8.662;2022-08-01T12:26:06;28.60;99.90
21918;DHT22;11123;49.882;8.662;2022-08-01T12:28:54;28.80;1.00
21918;DHT22;11123;49.882;8.662;2022-08-01T12:31:31;28.80;1.00
21918;DHT22;11123;49.882;8.662;2022-08-01T12:34:25;28.60;1.00
21918;DHT22;11123;49.882;8.662;2022-08-01T12:36:55;28.50;1.00
21918;DHT22;11123;49.882;8.662;2022-08-01T12:39:30;28.80;1.00
21918;DHT22;11123;49.882;8.662;2022-08-01T12:42:00;28.40;1.00
21918;DHT22;11123;49.882;8.662;2022-08-01T12:44:29;28.50;1.00
21918;DHT22;11123;49.882;8.662;2022-08-01T12:46:59;28.30;99.90
21918;DHT22;11123;49.882;8.662;2022-08-01T12:49:28;28.10;1.00
21918;DHT22;11123;49.882;8.662;2022-08-01T12:51:57;28.10;1.00
21918;DHT22;11123;49.882;8.662;2022-08-01T12:54:26;28.20;1.00
21918;DHT22;11123;49.882;8.662;2022-08-01T12:56:54;28.60;99.90
21918;DHT22;11123;49.882;8.662;2022-08-01T12:59:27;29.30;99.90
21918;DHT22;11123;49.882;8.662;2022-08-01T13:01:55;29.40;99.90
21918;DHT22;11123;49.882;8.662;2022-08-01T13:04:25;29.50;99.90
21918;DHT22;11123;49.882;8.662;2022-08-01T13:06:54;29.60;99.90
21918;DHT22;11123;49.882;8.662;2022-08-01T13:09:22;29.70;99.90
21918;DHT22;11123;49.882;8.662;2022-08-01T13:11:50;29.10;99.90
21918;DHT22;11123;49.882;8.662;2022-08-01T13:14:34;28.10;99.90
21918;DHT22;11123;49.882;8.662;2022-08-01T13:17:07;28.00;99.90
21918;DHT22;11123;49.882;8.662;2022-08-01T13:19:44;28.00;99.90
21918;DHT22;11123;49.882;8.662;2022-08-01T13:22:14;28.20;99.90
21918;DHT22;11123;49.882;8.662;2022-08-01T13:24:42;28.30;99.90
21918;DHT22;11123;49.882;8.662;2022-08-01T13:27:20;28.60;99.90
21918;DHT22;11123;49.882;8.662;2022-08-01T13:29:51;28.60;99.90
21918;DHT22;11123;49.882;8.662;2022-08-01T13:32:21;28.70;99.90
21918;DHT22;11123;49.882;8.662;2022-08-01T13:35:01;28.80;99.90
21918;DHT22;11123;49.882;8.662;2022-08-01T13:37:29;28.90;99.90
21918;DHT22;11123;49.882;8.662;2022-08-01T13:39:58;28.70;99.90
21918;DHT22;11123;49.882;8.662;2022-08-01T13:42:29;28.90;99.90
21918;DHT22;11123;49.882;8.662;2022-08-01T13:45:00;29.30;99.90
21918;DHT22;11123;49.882;8.662;2022-08-01T13:47:29;29.50;99.90
21918;DHT22;11123;49.882;8.662;2022-08-01T13:49:58;29.50;99.90
21918;DHT22;11123;49.882;8.662;2022-08-01T13:52:30;28.90;99.90
21918;DHT22;11123;49.882;8.662;2022-08-01T13:54:58;28.70;99.90
21918;DHT22;11123;49.882;8.662;2022-08-01T13:57:27;28.30;99.90
21918;DHT22;11123;49.882;8.662;2022-08-01T14:00:06;28.40;99.90
21918;DHT22;11123;49.882;8.662;2022-08-01T14:02:37;28.60;99.90
21918;DHT22;11123;49.882;8.662;2022-08-01T14:05:06;28.80;99.90
21918;DHT22;11123;49.882;8.662;2022-08-01T14:07:34;28.50;99.90
21918;DHT22;11123;49.882;8.662;2022-08-01T14:10:04;28.40;99.90
21918;DHT22;11123;49.882;8.662;2022-08-01T14:12:46;28.40;99.90
21918;DHT22;11123;49.882;8.662;2022-08-01T14:15:16;28.30;99.90
21918;DHT22;11123;49.882;8.662;2022-08-01T14:18:05;28.50;99.90
21918;DHT22;11123;49.882;8.662;2022-08-01T14:20:36;28.60;99.90
21918;DHT22;11123;49.882;8.662;2022-08-01T14:23:05;28.60;99.90
21918;DHT22;11123;49.882;8.662;2022-08-01T14:25:36;28.70;99.90
21918;DHT22;11123;49.882;8.662;2022-08-01T14:28:24;28.80;99.90
21918;DHT22;11123;49.882;8.662;2022-08-01T14:30:56;28.60;99.90
21918;DHT22;11123;49.882;8.662;2022-08-01T14:33:25;28.20;99.90
21918;DHT22;11123;49.882;8.662;2022-08-01T14:35:53;28.10;99.90
21918;DHT22;11123;49.882;8.662;2022-08-01T14:38:41;28.10;99.90
21918;DHT22;11123;49.882;8.662;2022-08-01T14:41:12;28.20;99.90
21918;DHT22;11123;49.882;8.662;2022-08-01T14:43:41;28.00;99.90
21918;DHT22;11123;49.882;8.662;2022-08-01T14:46:11;27.80;99.90
21918;DHT22;11123;49.882;8.662;2022-08-01T14:48:40;27.80;99.90
21918;DHT22;11123;49.882;8.662;2022-08-01T14:51:08;27.60;99.90
21918;DHT22;11123;49.882;8.662;2022-08-01T14:53:36;27.70;99.90
21918;DHT22;11123;49.882;8.662;2022-08-01T14:56:10;27.80;99.90
21918;DHT22;11123;49.882;8.662;2022-08-01T14:58:38;27.70;99.90
21918;DHT22;11123;49.882;8.662;2022-08-01T15:01:06;27.90;99.90
21918;DHT22;11123;49.882;8.662;2022-08-01T15:03:36;27.90;99.90
21918;DHT22;11123;49.882;8.662;2022-08-01T15:06:04;27.80;99.90
21918;DHT22;11123;49.882;8.662;2022-08-01T15:08:33;27.60;99.90
21918;DHT22;11123;49.882;8.662;2022-08-01T15:11:01;27.40;99.90
21918;DHT22;11123;49.882;8.662;2022-08-01T15:13:29;27.40;99.90
21918;DHT22;11123;49.882;8.662;2022-08-01T15:15:58;27.50;99.90
21918;DHT22;11123;49.882;8.662;2022-08-01T15:18:26;27.20;99.90
21918;DHT22;11123;49.882;8.662;2022-08-01T15:20:56;27.10;99.90
21918;DHT22;11123;49.882;8.662;2022-08-01T15:23:25;27.00;99.90
21918;DHT22;11123;49.882;8.662;2022-08-01T15:25:53;27.00;1.00
21918;DHT22;11123;49.882;8.662;2022-08-01T15:28:21;27.00;1.00
21918;DHT22;11123;49.882;8.662;2022-08-01T15:30:49;26.90;1.00
21918;DHT22;11123;49.882;8.662;2022-08-01T15:33:17;26.80;1.00
21918;DHT22;11123;49.882;8.662;2022-08-01T15:35:48;25.40;1.00
21918;DHT22;11123;49.882;8.662;2022-08-01T15:38:20;24.00;71.10
21918;DHT22;11123;49.882;8.662;2022-08-01T15:40:49;22.70;99.90
21918;DHT22;11123;49.882;8.662;2022-08-01T15:43:17;21.70;99.90
21918;DHT22;11123;49.882;8.662;2022-08-01T15:45:47;21.10;99.90
21918;DHT22;11123;49.882;8.662;2022-08-01T15:48:15;20.70;99.90
21918;DHT22;11123;49.882;8.662;2022-08-01T15:50:44;20.40;99.90
21918;DHT22;11123;49.882;8.662;2022-08-01T15:53:12;20.30;99.90
21918;DHT22;11123;49.882;8.662;2022-08-01T15:55:42;20.00;99.90
21918;DHT22;11123;49.882;8.662;2022-08-01T15:58:19;19.90;99.90
21918;DHT22;11123;49.882;8.662;2022-08-01T16:00:47;19.90;99.90
21918;DHT22;11123;49.882;8.662;2022-08-01T16:03:16;20.00;99.90
21918;DHT22;11123;49.882;8.662;2022-08-01T16:05:44;20.00;99.90
21918;DHT22;11123;49.882;8.662;2022-08-01T16:08:13;20.10;99.90
21918;DHT22;11123;49.882;8.662;2022-08-01T16:10:43;20.20;99.90